Flight Track Log - Related Links

Times and Time Zones

All times are in EDT time to prevent confusion due to time zone crossing. See the N803FR flight status page for this flight to view local times or setup timezone preferences in your user account.

Time Position Orientation Groundspeed Altitude Reporting Facility
EDT Latitude Longitude Course Direction KTS MPH feet Rate Location/Type
Fri 11:06:02 AM 41.8000 -87.8000 255° West 180 207 2,300  Level Chicago TRACON
Fri 11:07:02 AM 41.7833 -87.8833 270° West 222 255 3,000 1,050 Climbing Chicago TRACON
Fri 11:08:02 AM 41.7833 -87.9667 271° West 229 264 4,400 1,784 Climbing Chicago TRACON
Fri 11:09:30 AM 41.7850 -88.1022 271° West 273 314 7,400 2,392 Climbing Chicago Center
Fri 11:10:30 AM 41.7861 -88.2108 267° West 279 321 10,300 2,650 Climbing Chicago Center
Fri 11:11:30 AM 41.7811 -88.3281 273° West 303 349 12,700 2,500 Climbing Chicago Center
Fri 11:12:30 AM 41.7861 -88.4503 295° West 320 368 15,300 2,550 Climbing Chicago Center
Fri 11:13:30 AM 41.8267 -88.5669 294° West 345 397 17,800 2,350 Climbing Chicago Center
Fri 11:14:30 AM 41.8669 -88.6864 278° West 350 403 20,000 2,500 Climbing Chicago Center
Fri 11:15:30 AM 41.8825 -88.8339 271° West 370 426 22,800 2,400 Climbing Chicago Center
Fri 11:16:30 AM 41.8850 -88.9733 268° West 375 432 24,800 1,800 Climbing Chicago Center
Fri 11:17:30 AM 41.8814 -89.1211 267° West 381 438 26,400 1,750 Climbing Chicago Center
Fri 11:18:30 AM 41.8753 -89.2719 269° West 398 458 28,300 1,650 Climbing Chicago Center
Fri 11:19:30 AM 41.8731 -89.4253 269° West 411 473 29,700 1,350 Climbing Chicago Center
Fri 11:20:30 AM 41.8708 -89.5842 267° West 422 486 31,000 1,500 Climbing Chicago Center
Fri 11:21:30 AM 41.8642 -89.7458 267° West 428 493 32,700 1,500 Climbing Chicago Center
Fri 11:22:30 AM 41.8572 -89.9075 271° West 433 498 34,000 1,550 Climbing Chicago Center
Fri 11:23:30 AM 41.8586 -90.0469 267° West 433 498 35,800 1,300 Climbing Chicago Center
Fri 11:24:30 AM 41.8533 -90.2000 268° West 428 493 36,600 1,050 Climbing Chicago Center
Fri 11:25:30 AM 41.8500 -90.3561 267° West 422 486 37,900 700 Climbing Chicago Center
Fri 11:26:30 AM 41.8442 -90.5289 268° West 422 486 38,000 50 Climbing Chicago Center
Fri 11:27:30 AM 41.8406 -90.6822 266° West 422 486 38,000  Level Chicago Center
Fri 11:28:30 AM 41.8322 -90.8381 267° West 422 486 38,000  Level Chicago Center
Fri 11:29:30 AM 41.8261 -90.9911 267° West 422 486 38,000  Level Chicago Center
Fri 11:30:30 AM 41.8194 -91.1469 269° West 422 486 38,000  Level Chicago Center
Fri 11:31:30 AM 41.8169 -91.3031 266° West 422 486 38,000  Level Chicago Center
Fri 11:32:30 AM 41.8081 -91.4586 268° West 422 486 38,000  Level Chicago Center
Fri 11:33:30 AM 41.8031 -91.6117 266° West 417 480 38,000  Level Chicago Center
Fri 11:34:30 AM 41.7956 -91.7675 266° West 417 480 38,000  Level Chicago Center
Fri 11:35:30 AM 41.7883 -91.9175 267° West 422 486 38,000  Level Chicago Center
Fri 11:36:30 AM 41.7825 -92.0706 264° West 422 486 38,000  Level Chicago Center
Fri 11:37:30 AM 41.7706 -92.2258 268° West 422 486 38,000  Level Chicago Center
Fri 11:38:30 AM 41.7664 -92.3844 266° West 422 486 38,000  Level Chicago Center
Fri 11:39:30 AM 41.7581 -92.5372 266° West 417 480 38,000  Level Chicago Center
Fri 11:40:30 AM 41.7494 -92.6900 266° West 417 480 38,000  Level Chicago Center
Fri 11:42:47 AM 41.7342 -93.0139 266° West 408 470 38,000  Level Minneapolis Center
Fri 11:43:49 AM 41.7239 -93.1936 266° West 408 470 38,000  Level Minneapolis Center
Fri 11:44:52 AM 41.7158 -93.3458 266° West 411 473 38,000  Level Minneapolis Center
Fri 11:45:54 AM 41.7072 -93.4956 266° West 410 472 38,000  Level Minneapolis Center
Fri 11:46:56 AM 41.6986 -93.6461 266° West 410 472 38,000  Level Minneapolis Center
Fri 11:47:58 AM 41.6897 -93.7967 265° West 409 471 38,000  Level Minneapolis Center
Fri 11:49:00 AM 41.6786 -93.9736 266° West 411 473 38,000  Level Minneapolis Center
Fri 11:50:02 AM 41.6697 -94.1264 265° West 407 468 38,000  Level Minneapolis Center
Fri 11:51:04 AM 41.6592 -94.2753 264° West 409 471 38,000  Level Minneapolis Center
Fri 11:52:06 AM 41.6475 -94.4269 264° West 410 472 38,000  Level Minneapolis Center
Fri 11:53:08 AM 41.6339 -94.6086 265° West 410 472 38,000  Level Minneapolis Center
Fri 11:54:10 AM 41.6242 -94.7603 266° West 409 471 38,000  Level Minneapolis Center
Fri 11:55:12 AM 41.6164 -94.9103 265° West 407 468 38,000  Level Minneapolis Center
Fri 11:56:14 AM 41.6064 -95.0578 264° West 401 461 38,000  Level Minneapolis Center
Fri 11:57:16 AM 41.5939 -95.2083 265° West 404 465 38,000  Level Minneapolis Center
Fri 11:58:18 AM 41.5836 -95.3625 264° West 414 476 38,000  Level Minneapolis Center
Fri 11:59:20 AM 41.5694 -95.5447 264° West 413 475 38,000  Level Minneapolis Center
Fri 12:00:22 PM 41.5589 -95.6778 264° West 414 476 38,000  Level Minneapolis Center
Fri 12:01:24 PM 41.5444 -95.8608 264° West 414 476 38,000  Level Minneapolis Center
Fri 12:02:25 PM 41.5325 -96.0128 264° West 413 475 38,000  Level Minneapolis Center
Fri 12:03:27 PM 41.5203 -96.1672 264° West 416 479 38,000  Level Minneapolis Center
Fri 12:04:29 PM 41.5075 -96.3194 264° West 415 478 38,000  Level Minneapolis Center
Fri 12:05:31 PM 41.4942 -96.4811 263° West 415 478 38,000  Level Minneapolis Center
Fri 12:06:33 PM 41.4803 -96.6356 263° West 419 482 38,000  Level Minneapolis Center
Fri 12:07:35 PM 41.4664 -96.7892 264° West 420 483 38,000  Level Minneapolis Center
Fri 12:08:37 PM 41.4533 -96.9411 263° West 416 479 38,000  Level Minneapolis Center
Fri 12:09:39 PM 41.4397 -97.0925 263° West 414 476 38,000  Level Minneapolis Center
Fri 12:10:41 PM 41.4225 -97.2747 263° West 414 476 38,000  Level Minneapolis Center
Fri 12:11:43 PM 41.4094 -97.4247 263° West 410 472 38,000  Level Minneapolis Center
Fri 12:12:45 PM 41.3947 -97.5761 263° West 412 474 38,000  Level Minneapolis Center
Fri 12:13:47 PM 41.3803 -97.7278 263° West 413 475 38,000  Level Minneapolis Center
Fri 12:14:49 PM 41.3658 -97.8800 263° West 414 476 38,000  Level Minneapolis Center
Fri 12:15:51 PM 41.3511 -98.0300 262° West 412 474 38,000  Level Minneapolis Center
Fri 12:16:53 PM 41.3336 -98.2044 262° West 414 476 38,000  Level Minneapolis Center
Fri 12:17:55 PM 41.3181 -98.3572 262° West 416 479 38,000  Level Minneapolis Center
Fri 12:18:57 PM 41.3017 -98.5186 262° West 418 481 38,000  Level Minneapolis Center
Fri 12:19:59 PM 41.2861 -98.6722 262° West 419 482 38,000  Level Minneapolis Center
Fri 12:21:01 PM 41.2700 -98.8256 255° West 420 483 38,000  Level Minneapolis Center
Fri 12:22:03 PM 41.2394 -98.9758 255° West 419 482 38,000  Level Minneapolis Center
Fri 12:23:05 PM 41.2103 -99.1233 256° West 413 475 38,000 48 Level Minneapolis Center
Fri 12:24:07 PM 41.1803 -99.2811 256° West 414 476 38,100  Climbing Minneapolis Center
Fri 12:25:09 PM 41.1469 -99.4544 257° West 409 471 38,000 -43 Descending Minneapolis Center
Fri 12:26:27 PM 41.1172 -99.6219 255° West 415 478 38,000  Level Denver Center
Fri 12:27:27 PM 41.0881 -99.7656 255° West 410 472 38,000 50 Level Denver Center
Fri 12:28:27 PM 41.0553 -99.9231 256° West 410 472 38,100 50 Climbing Denver Center
Fri 12:29:27 PM 41.0278 -100.0636 255° West 410 472 38,100 -50 Level Denver Center
Fri 12:30:27 PM 41.0033 -100.1872 256° West 405 466 38,000 -50 Descending Denver Center
Fri 12:31:27 PM 40.9772 -100.3217 255° West 394 453 38,000  Level Denver Center
Fri 12:32:27 PM 40.9472 -100.4678 256° West 388 447 38,000  Level Denver Center
Fri 12:33:27 PM 40.9208 -100.6047 254° West 388 447 38,000 50 Level Denver Center
Fri 12:34:27 PM 40.8939 -100.7308 254° West 393 452 38,100  Climbing Denver Center
Fri 12:35:27 PM 40.8617 -100.8819 253° West 393 452 38,000 -50 Descending Denver Center
Fri 12:36:27 PM 40.8342 -101.0025 254° West 381 438 38,000  Level Denver Center
Fri 12:37:27 PM 40.8050 -101.1394 255° West 381 438 38,000  Level Denver Center
Fri 12:38:27 PM 40.7742 -101.2872 255° West 381 438 38,000  Level Denver Center
Fri 12:39:27 PM 40.7467 -101.4211 253° West 387 445 38,000  Level Denver Center
Fri 12:40:27 PM 40.7186 -101.5436 254° West 387 445 38,000  Level Denver Center
Fri 12:41:27 PM 40.6872 -101.6886 254° West 382 440 38,000  Level Denver Center
Fri 12:42:27 PM 40.6592 -101.8164 255° West 377 434 38,000  Level Denver Center
Fri 12:43:27 PM 40.6311 -101.9497 254° West 382 440 38,000  Level Denver Center
Fri 12:44:27 PM 40.6044 -102.0694 254° West 382 440 38,000  Level Denver Center
Fri 12:45:27 PM 40.5722 -102.2136 253° West 382 440 38,000  Level Denver Center
Fri 12:46:27 PM 40.5417 -102.3467 254° West 382 440 38,000  Level Denver Center
Fri 12:47:27 PM 40.5128 -102.4769 253° West 382 440 38,000  Level Denver Center
Fri 12:48:27 PM 40.4856 -102.5933 258° West 382 440 38,000 -250 Level Denver Center
Fri 12:49:27 PM 40.4631 -102.7339 252° West 389 448 37,500 -1,600 Descending Denver Center
Fri 12:50:27 PM 40.4317 -102.8611 256° West 384 442 34,800 -2,750 Descending Denver Center
Fri 12:51:27 PM 40.4047 -102.9989 253° West 389 448 32,000 -2,450 Descending Denver Center
Fri 12:52:27 PM 40.3714 -103.1397 252° West 384 442 29,900 -2,100 Descending Denver Center
Fri 12:53:27 PM 40.3394 -103.2692 253° West 378 435 27,800 -2,100 Descending Denver Center
Fri 12:54:27 PM 40.3094 -103.3961 252° West 367 422 25,700 -2,050 Descending Denver Center
Fri 12:55:27 PM 40.2794 -103.5172 254° West 367 422 23,700 -1,950 Descending Denver Center
Fri 12:56:27 PM 40.2531 -103.6353 260° West 361 415 21,800 -1,850 Descending Denver Center
Fri 12:57:27 PM 40.2372 -103.7558 267° West 347 399 20,000 -1,600 Descending Denver Center
Fri 12:58:27 PM 40.2319 -103.8864 268° West 347 399 18,600 -1,500 Descending Denver Center
Fri 12:59:27 PM 40.2286 -104.0144 267° West 354 407 17,000 -1,500 Descending Denver Center
Fri 01:00:27 PM 40.2228 -104.1397 266° West 354 407 15,600 -1,400 Descending Denver Center
Fri 01:01:27 PM 40.2169 -104.2625 262° West 344 396 14,200 -1,250 Descending Denver Center
Fri 01:02:27 PM 40.2044 -104.3797 253° West 332 382 13,100 -750 Descending Denver Center
Fri 01:03:27 PM 40.1811 -104.4783 235° Southwest 301 346 12,700 -900 Descending Denver Center
Fri 01:04:27 PM 40.1406 -104.5528 225° Southwest 282 325 11,300 -1,800 Descending Denver Center
Fri 01:05:27 PM 40.0856 -104.6250 219° Southwest 282 325 9,100 -1,950 Descending Denver Center
Fri 01:06:27 PM 40.0281 -104.6861 181° South 276 318 7,400 -1,100 Descending Denver Center
Fri 01:07:27 PM 39.9697 -104.6878 177° South 227 261 6,900 -761 Descending Denver Center
Fri 01:08:49 PM 39.9000 -104.6833 67° East 144 166 5,600 -951 Descending Denver TRACON
Fri 01:16:32 PM 40.1392 -103.9275 67° East  Level FlightAware Approximate

Login

Don't have an account? Register now (free) for customized features, flight alerts, and more!